Hhl Rio De Janeiro — D5AU2 — position and weather

sailwx.info

Track history (hours):
 
Tides and Currents Weather Stations Pressure Air Temp Water Temp Dewpoint Dewpoint Depression Visibility Wind Speed Wind Dir Waves Ship Positions

Hhl Rio De Janeiro

Last reported at 2016-Aug-29 17:33 UTC. Time now 2016-Aug-29 18:04 UTC.
Position N 57°40' E 010°39'.

Length 168 m; draft 7.5 m.

Type: Cargo ship. MMSI: 636092346.

Date/timePositionNaut miles runAvg speedWind from/ knotsBaromVisibWave heightAir tempDewpointWater temp
2016-Aug-29 17:33N 57°40' E 010°39'1110.9
2016-Aug-29 16:33N 57°36' E 010°58'1212.0
2016-Aug-29 15:33N 57°31' E 011°18'1110.7
2016-Aug-29 14:33N 57°22' E 011°30'1211.5
2016-Aug-29 13:32N 57°11' E 011°37'1111.0
2016-Aug-29 12:33N 57°01' E 011°44'1110.8
2016-Aug-29 11:33N 56°51' E 011°51'1010.3
2016-Aug-29 10:33N 56°41' E 011°56'10 9.8
2016-Aug-29 09:33N 56°32' E 011°60'10 9.8
2016-Aug-29 08:33N 56°22' E 012°04'1110.2
2016-Aug-29 07:29N 56°14' E 012°17'1111.6
2016-Aug-29 06:33N 56°07' E 012°32'1211.6
2016-Aug-29 05:33N 55°58' E 012°43'1010.1
2016-Aug-29 04:33N 55°48' E 012°43'1110.8
2016-Aug-29 03:33N 55°37' E 012°42'1010.5
2016-Aug-29 02:33N 55°26' E 012°42'10 9.6
2016-Aug-29 01:33N 55°17' E 012°47'1111.2
2016-Aug-29 00:33N 55°15' E 013°06'1211.6
2016-Aug-28 23:33N 55°15' E 013°27'1212.3
2016-Aug-28 22:33N 55°14' E 013°48'1212.2
2016-Aug-28 21:33N 55°13' E 014°10'1111.0
2016-Aug-28 20:33N 55°20' E 014°25'1212.4
2016-Aug-28 19:33N 55°28' E 014°41'1212.1
2016-Aug-28 18:33N 55°34' E 014°59'1211.9
2016-Aug-28 17:32N 55°40' E 015°18'1212.1
2016-Aug-28 16:33N 55°46' E 015°36'1212.3
2016-Aug-28 15:33N 55°53' E 015°55'1212.4
2016-Aug-28 14:33N 55°59' E 016°15'1312.8
2016-Aug-28 13:33N 56°05' E 016°34'1312.5
2016-Aug-28 12:33N 56°12' E 016°53'1212.4
2016-Aug-28 11:33N 56°20' E 017°11'1212.3
2016-Aug-28 10:33N 56°27' E 017°29'1212.0
2016-Aug-28 09:33N 56°34' E 017°46'1212.1
2016-Aug-28 08:33N 56°41' E 018°04'1212.1
2016-Aug-28 07:33N 56°49' E 018°21'1212.1
2016-Aug-28 06:33N 56°58' E 018°36'1212.1
2016-Aug-28 05:33N 57°07' E 018°49'1212.3
2016-Aug-28 04:33N 57°17' E 019°03'13411.8
2016-Aug-27 17:10N 59°06' E 021°32'711.1
2016-Aug-27 16:33N 59°11' E 021°41'1411.1
2016-Aug-27 15:15N 59°20' E 022°03'710.7
2016-Aug-27 14:33N 59°24' E 022°15'3110.0
2016-Aug-27 11:25N 59°37' E 023°11'910.1
2016-Aug-27 10:33N 59°38' E 023°28'1010.0
2016-Aug-27 09:33N 59°41' E 023°47'1110.7
2016-Aug-27 08:33N 59°43' E 024°08'9 9.2
2016-Aug-27 07:33N 59°40' E 024°25'1010.3
2016-Aug-27 06:33N 59°38' E 024°45'11 0.2
2016-Aug-25 08:15N 59°30' E 024°58'0 0.0
2016-Aug-25 07:33N 59°30' E 024°58'0 0.0
2016-Aug-25 06:30N 59°30' E 024°58'  
2016-Aug-20 13:27N 59°30' E 024°58'  
Track history (hours):
 
Tides and Currents Weather Stations Pressure Air Temp Water Temp Dewpoint Dewpoint Depression Visibility Wind Speed Wind Dir Waves Ship Positions

Hhl Rio De Janeiro

Last reported at 2016-Aug-29 17:33 UTC. Time now 2016-Aug-29 18:04 UTC.
Position N 57°40' E 010°39'.

Length 168 m; draft 7.5 m.

Type: Cargo ship. MMSI: 636092346.

Date/timePositionNaut miles runAvg speedWind from/ knotsBaromVisibWave heightAir tempDewpointWater temp
2016-Aug-29 17:33N 57°40' E 010°39'1110.9
2016-Aug-29 16:33N 57°36' E 010°58'1212.0
2016-Aug-29 15:33N 57°31' E 011°18'1110.7
2016-Aug-29 14:33N 57°22' E 011°30'1211.5
2016-Aug-29 13:32N 57°11' E 011°37'1111.0
2016-Aug-29 12:33N 57°01' E 011°44'1110.8
2016-Aug-29 11:33N 56°51' E 011°51'1010.3
2016-Aug-29 10:33N 56°41' E 011°56'10 9.8
2016-Aug-29 09:33N 56°32' E 011°60'10 9.8
2016-Aug-29 08:33N 56°22' E 012°04'1110.2
2016-Aug-29 07:29N 56°14' E 012°17'1111.6
2016-Aug-29 06:33N 56°07' E 012°32'1211.6
2016-Aug-29 05:33N 55°58' E 012°43'1010.1
2016-Aug-29 04:33N 55°48' E 012°43'1110.8
2016-Aug-29 03:33N 55°37' E 012°42'1010.5
2016-Aug-29 02:33N 55°26' E 012°42'10 9.6
2016-Aug-29 01:33N 55°17' E 012°47'1111.2
2016-Aug-29 00:33N 55°15' E 013°06'1211.6
2016-Aug-28 23:33N 55°15' E 013°27'1212.3
2016-Aug-28 22:33N 55°14' E 013°48'1212.2
2016-Aug-28 21:33N 55°13' E 014°10'1111.0
2016-Aug-28 20:33N 55°20' E 014°25'1212.4
2016-Aug-28 19:33N 55°28' E 014°41'1212.1
2016-Aug-28 18:33N 55°34' E 014°59'1211.9
2016-Aug-28 17:32N 55°40' E 015°18'1212.1
2016-Aug-28 16:33N 55°46' E 015°36'1212.3
2016-Aug-28 15:33N 55°53' E 015°55'1212.4
2016-Aug-28 14:33N 55°59' E 016°15'1312.8
2016-Aug-28 13:33N 56°05' E 016°34'1312.5
2016-Aug-28 12:33N 56°12' E 016°53'1212.4
2016-Aug-28 11:33N 56°20' E 017°11'1212.3
2016-Aug-28 10:33N 56°27' E 017°29'1212.0
2016-Aug-28 09:33N 56°34' E 017°46'1212.1
2016-Aug-28 08:33N 56°41' E 018°04'1212.1
2016-Aug-28 07:33N 56°49' E 018°21'1212.1
2016-Aug-28 06:33N 56°58' E 018°36'1212.1
2016-Aug-28 05:33N 57°07' E 018°49'1212.3
2016-Aug-28 04:33N 57°17' E 019°03'13411.8
2016-Aug-27 17:10N 59°06' E 021°32'711.1
2016-Aug-27 16:33N 59°11' E 021°41'1411.1
2016-Aug-27 15:15N 59°20' E 022°03'710.7
2016-Aug-27 14:33N 59°24' E 022°15'3110.0
2016-Aug-27 11:25N 59°37' E 023°11'910.1
2016-Aug-27 10:33N 59°38' E 023°28'1010.0
2016-Aug-27 09:33N 59°41' E 023°47'1110.7
2016-Aug-27 08:33N 59°43' E 024°08'9 9.2
2016-Aug-27 07:33N 59°40' E 024°25'1010.3
2016-Aug-27 06:33N 59°38' E 024°45'11 0.2
2016-Aug-25 08:15N 59°30' E 024°58'0 0.0
2016-Aug-25 07:33N 59°30' E 024°58'0 0.0
2016-Aug-25 06:30N 59°30' E 024°58'  
2016-Aug-20 13:27N 59°30' E 024°58'  

Dump ship's entire track history